Terminal Aerodrome Forecast
Issued by NWS

Home | Current Version | Previous Version | Text Only | Print | Product List | Glossary On
Versions: 1 2 3 4 5 6 7 8 9 10 11 12 13
534
FTUS44 KBMX 261720
TAFMGM
TAF
KMGM 261720Z 2618/2718 06006KT P6SM SKC
     FM262200 12004KT P6SM SKC
     FM270500 11004KT P6SM OVC180
     FM271400 13006KT P6SM OVC150
     FM271500 14009KT P6SM SHRA OVC120
     FM271700 15010KT P6SM RA OVC060=

USA.gov is the U.S. government's official web portal to all federal, state and local government web resources and services.